createdAt,value
2018-07-05T00:02:28.200Z,99577.00
2018-07-05T00:07:49.601Z,99579.00
2018-07-05T00:13:10.986Z,99579.00
2018-07-05T00:18:32.389Z,99580.00
2018-07-05T00:23:53.681Z,99577.00
2018-07-05T00:29:15.194Z,99571.00
2018-07-05T00:34:36.719Z,99575.00
2018-07-05T00:39:52.327Z,99571.00
2018-07-05T00:45:08.080Z,99575.00
2018-07-05T00:50:29.415Z,99570.00
2018-07-05T00:55:51.168Z,99572.00
2018-07-05T01:01:12.571Z,99566.00
2018-07-05T01:06:34.033Z,99569.00
2018-07-05T01:11:55.325Z,99568.00
2018-07-05T01:17:16.917Z,99560.00
2018-07-05T01:22:38.205Z,99558.00
2018-07-05T01:27:59.778Z,99559.00
2018-07-05T01:33:21.346Z,99544.00
2018-07-05T01:38:36.676Z,99551.00
2018-07-05T01:43:58.053Z,99548.00
2018-07-05T01:49:19.665Z,99549.00
2018-07-05T01:54:40.987Z,99547.00
2018-07-05T02:00:02.347Z,99544.00
2018-07-05T02:05:23.647Z,99542.00
2018-07-05T02:10:45.274Z,99536.00
2018-07-05T02:16:06.762Z,99535.00
2018-07-05T02:21:28.261Z,99536.00
2018-07-05T02:26:49.627Z,99528.00
2018-07-05T02:32:11.106Z,99525.00
2018-07-05T02:37:31.844Z,99528.00
2018-07-05T02:42:53.338Z,99545.00
2018-07-05T02:48:08.814Z,99549.00
2018-07-05T02:53:30.111Z,99544.00
2018-07-05T02:58:51.485Z,99548.00
2018-07-05T03:04:13.238Z,99552.00
2018-07-05T03:09:34.601Z,99543.00
2018-07-05T03:14:56.117Z,99540.00
2018-07-05T03:20:17.453Z,99540.00
2018-07-05T03:25:39.215Z,99540.00
2018-07-05T03:31:00.446Z,99531.00
2018-07-05T03:36:15.788Z,99537.00
2018-07-05T03:41:37.261Z,99541.00
2018-07-05T03:46:58.549Z,99536.00
2018-07-05T03:52:19.994Z,99533.00
2018-07-05T03:57:41.296Z,99537.00
2018-07-05T04:03:02.814Z,99533.00
2018-07-05T04:08:24.280Z,99533.00
2018-07-05T04:13:45.653Z,99531.00
2018-07-05T04:19:07.317Z,99532.00
2018-07-05T04:24:22.725Z,99526.00
2018-07-05T04:29:44.172Z,99526.00
2018-07-05T04:35:05.687Z,99524.00
2018-07-05T04:40:27.249Z,99525.00
2018-07-05T04:45:48.732Z,99526.00
2018-07-05T04:51:10.165Z,99526.00
2018-07-05T04:56:31.717Z,99535.00
2018-07-05T05:01:52.942Z,99535.00
2018-07-05T05:07:14.254Z,99537.00
2018-07-05T05:12:35.821Z,99529.00
2018-07-05T05:17:57.098Z,99524.00
2018-07-05T05:23:18.452Z,99536.00
2018-07-05T05:28:39.921Z,99537.00
2018-07-05T05:34:01.748Z,99539.00
2018-07-05T05:39:22.971Z,99544.00
2018-07-05T05:44:44.274Z,99550.00
2018-07-05T05:50:05.726Z,99554.00
2018-07-05T05:55:27.225Z,99549.00
2018-07-05T06:00:48.443Z,99558.00
2018-07-05T06:06:10.040Z,99543.00
2018-07-05T06:11:31.847Z,99549.00
2018-07-05T06:16:53.636Z,99544.00
2018-07-05T06:22:15.178Z,99547.00
2018-07-05T06:27:36.544Z,99548.00
2018-07-05T06:32:58.078Z,99550.00
2018-07-05T06:38:19.549Z,99537.00
2018-07-05T06:43:41.051Z,99539.00
2018-07-05T06:48:56.297Z,99539.00
2018-07-05T06:54:18.194Z,99537.00
2018-07-05T06:59:39.928Z,99536.00
2018-07-05T07:05:01.457Z,99537.00
2018-07-05T07:10:16.800Z,99539.00
2018-07-05T07:15:38.042Z,99537.00
2018-07-05T07:20:59.450Z,99534.00
2018-07-05T07:26:20.918Z,99533.00
2018-07-05T07:31:42.399Z,99528.00
2018-07-05T07:37:04.103Z,99532.00
2018-07-05T07:42:06.948Z,99533.00
2018-07-05T07:47:09.798Z,99522.00
2018-07-05T07:52:12.665Z,99523.00
2018-07-05T07:57:15.517Z,99526.00
2018-07-05T08:02:18.398Z,99528.00
2018-07-05T08:07:21.236Z,99524.00
2018-07-05T08:12:24.218Z,99517.00
2018-07-05T08:17:27.353Z,99518.00
2018-07-05T08:22:30.232Z,99508.00
2018-07-05T08:27:33.073Z,99510.00
2018-07-05T08:32:35.903Z,99513.00
2018-07-05T08:37:38.766Z,99514.00
2018-07-05T08:42:41.613Z,99512.00
2018-07-05T08:47:44.603Z,99506.00
2018-07-05T08:52:47.451Z,99502.00
2018-07-05T08:57:50.541Z,99493.00
2018-07-05T09:02:53.373Z,99494.00
2018-07-05T09:07:56.236Z,99490.00
2018-07-05T09:12:59.106Z,99488.00
2018-07-05T09:18:01.966Z,99487.00
2018-07-05T09:23:04.861Z,99484.00
2018-07-05T09:28:07.645Z,99481.00
2018-07-05T09:33:10.639Z,99472.00
2018-07-05T09:38:13.494Z,99478.00
2018-07-05T09:43:16.340Z,99476.00
2018-07-05T09:48:19.178Z,99470.00
2018-07-05T09:53:22.045Z,99462.00
2018-07-05T09:58:25.193Z,99464.00
2018-07-05T10:03:28.106Z,99456.00
2018-07-05T10:08:30.900Z,99453.00
2018-07-05T10:13:34.121Z,99444.00
2018-07-05T10:18:36.813Z,99446.00
2018-07-05T10:23:39.652Z,99436.00
2018-07-05T10:29:01.096Z,99429.00
2018-07-05T10:34:03.938Z,99419.00
2018-07-05T10:39:06.975Z,99416.00
2018-07-05T10:44:28.727Z,99414.00
2018-07-05T10:49:50.280Z,99406.00
2018-07-05T10:55:11.581Z,99395.00
2018-07-05T11:00:32.941Z,99399.00
2018-07-05T11:05:54.437Z,99390.00
2018-07-05T11:11:15.685Z,99395.00
2018-07-05T11:16:37.244Z,99387.00
2018-07-05T11:21:58.657Z,99383.00
2018-07-05T11:27:19.853Z,99383.00
2018-07-05T11:32:41.318Z,99375.00
2018-07-05T11:38:02.889Z,99370.00
2018-07-05T11:43:24.259Z,99362.00
2018-07-05T11:48:45.662Z,99368.00
2018-07-05T11:54:07.192Z,99361.00
2018-07-05T11:59:28.656Z,99351.00
2018-07-05T12:04:50.769Z,99348.00
2018-07-05T12:10:12.146Z,99344.00
2018-07-05T12:15:33.556Z,99343.00
2018-07-05T12:20:55.006Z,99343.00
2018-07-05T12:26:16.445Z,99338.00
2018-07-05T12:31:37.945Z,99333.00
2018-07-05T12:36:59.310Z,99327.00
2018-07-05T12:42:20.781Z,99319.00
2018-07-05T12:47:42.292Z,99313.00
2018-07-05T12:53:04.113Z,99314.00
2018-07-05T12:58:25.443Z,99321.00
2018-07-05T13:03:47.057Z,99317.00
2018-07-05T13:09:09.277Z,99311.00
2018-07-05T13:14:30.643Z,99313.00
2018-07-05T13:19:52.331Z,99312.00
2018-07-05T13:25:13.787Z,99318.00
2018-07-05T13:30:35.062Z,99318.00
2018-07-05T13:35:56.649Z,99315.00
2018-07-05T13:41:18.029Z,99314.00
2018-07-05T13:46:39.505Z,99315.00
2018-07-05T13:52:00.973Z,99318.00
2018-07-05T13:57:22.465Z,99308.00
2018-07-05T14:02:43.824Z,99313.00
2018-07-05T14:08:05.242Z,99306.00
2018-07-05T14:13:26.862Z,99305.00
2018-07-05T14:18:48.175Z,99295.00
2018-07-05T14:24:09.534Z,99300.00
2018-07-05T14:29:31.104Z,99302.00
2018-07-05T14:34:52.553Z,99302.00
2018-07-05T14:40:14.022Z,99299.00
2018-07-05T14:45:35.499Z,99309.00
2018-07-05T14:50:51.011Z,99304.00
2018-07-05T14:56:12.283Z,99308.00
2018-07-05T15:01:34.036Z,99314.00
2018-07-05T15:06:55.508Z,99312.00
2018-07-05T15:12:17.021Z,99318.00
2018-07-05T15:17:38.431Z,99319.00
2018-07-05T15:22:59.922Z,99321.00
2018-07-05T15:28:15.428Z,99331.00
2018-07-05T15:33:36.778Z,99328.00
2018-07-05T15:38:58.142Z,99336.00
2018-07-05T15:44:19.913Z,99344.00
2018-07-05T15:49:41.524Z,99360.00
2018-07-05T15:55:03.169Z,99357.00
2018-07-05T16:00:25.455Z,99362.00
2018-07-05T16:05:47.004Z,99359.00
2018-07-05T16:11:08.618Z,99360.00
2018-07-05T16:16:29.941Z,99351.00
2018-07-05T16:21:45.524Z,99361.00
2018-07-05T16:27:07.004Z,99363.00
2018-07-05T16:32:28.373Z,99364.00
2018-07-05T16:37:49.978Z,99368.00
2018-07-05T16:43:05.553Z,99356.00
2018-07-05T16:48:28.036Z,99356.00
2018-07-05T16:53:49.469Z,99362.00
2018-07-05T16:59:04.732Z,99365.00
2018-07-05T17:04:26.045Z,99360.00
2018-07-05T17:09:47.361Z,99355.00
2018-07-05T17:15:08.920Z,99353.00
2018-07-05T17:20:30.321Z,99361.00
2018-07-05T17:25:51.621Z,99372.00
2018-07-05T17:31:13.124Z,99378.00
2018-07-05T17:36:34.796Z,99391.00
2018-07-05T17:41:56.245Z,99407.00
2018-07-05T17:47:17.687Z,99421.00
2018-07-05T17:52:39.325Z,99437.00
2018-07-05T17:58:00.704Z,99436.00
2018-07-05T18:03:22.450Z,99436.00
2018-07-05T18:08:43.714Z,99438.00
2018-07-05T18:13:59.151Z,99435.00
2018-07-05T18:19:20.441Z,99446.00
2018-07-05T18:24:41.813Z,99449.00
2018-07-05T18:30:03.402Z,99462.00
2018-07-05T18:35:25.365Z,99472.00
2018-07-05T18:40:41.041Z,99473.00
2018-07-05T18:46:02.518Z,99490.00
2018-07-05T18:51:23.789Z,99471.00
2018-07-05T18:56:46.257Z,99482.00
2018-07-05T19:02:07.846Z,99480.00
2018-07-05T19:07:29.454Z,99481.00
2018-07-05T19:12:50.892Z,99486.00
2018-07-05T19:18:12.350Z,99492.00
2018-07-05T19:23:33.912Z,99499.00
2018-07-05T19:28:55.525Z,99514.00
2018-07-05T19:34:17.180Z,99516.00
2018-07-05T19:39:32.464Z,99517.00
2018-07-05T19:44:53.980Z,99526.00
2018-07-05T19:50:15.393Z,99530.00
2018-07-05T19:55:36.842Z,99531.00
2018-07-05T20:00:58.211Z,99528.00
2018-07-05T20:06:19.665Z,99526.00
2018-07-05T20:11:46.307Z,99531.00
2018-07-05T20:17:07.835Z,99531.00
2018-07-05T20:22:29.379Z,99534.00
2018-07-05T20:27:51.113Z,99536.00
2018-07-05T20:33:06.439Z,99531.00
2018-07-05T20:38:27.789Z,99542.00
2018-07-05T20:43:49.465Z,99547.00
2018-07-05T20:49:11.119Z,99550.00
2018-07-05T20:54:26.670Z,99551.00
2018-07-05T20:59:48.314Z,99552.00
2018-07-05T21:05:09.617Z,99563.00
2018-07-05T21:10:31.088Z,99574.00
2018-07-05T21:15:52.442Z,99583.00
2018-07-05T21:21:08.058Z,99586.00
2018-07-05T21:26:23.822Z,99594.00
2018-07-05T21:31:45.146Z,99598.00
2018-07-05T21:37:06.599Z,99599.00
2018-07-05T21:42:27.968Z,99607.00
2018-07-05T21:47:49.519Z,99606.00
2018-07-05T21:53:10.878Z,99608.00
2018-07-05T21:58:32.651Z,99621.00
2018-07-05T22:03:53.838Z,99638.00
2018-07-05T22:09:15.197Z,99647.00
2018-07-05T22:14:37.199Z,99650.00
2018-07-05T22:20:03.949Z,99654.00
2018-07-05T22:25:30.590Z,99657.00
2018-07-05T22:30:57.360Z,99660.00
2018-07-05T22:36:18.693Z,99663.00
2018-07-05T22:41:40.280Z,99669.00
2018-07-05T22:47:01.922Z,99664.00
2018-07-05T22:52:23.338Z,99665.00
2018-07-05T22:57:44.554Z,99674.00
2018-07-05T23:03:00.056Z,99678.00
2018-07-05T23:08:21.460Z,99689.00
2018-07-05T23:13:36.870Z,99695.00
2018-07-05T23:18:58.404Z,99699.00
2018-07-05T23:24:14.197Z,99700.00
2018-07-05T23:29:35.522Z,99704.00
2018-07-05T23:34:57.092Z,99704.00
2018-07-05T23:40:12.610Z,99705.00
2018-07-05T23:45:34.292Z,99712.00
2018-07-05T23:50:56.154Z,99709.00
2018-07-05T23:56:11.553Z,99714.00
